CheckWX is a tool to help pilots better visualize weather data.  It is not intended as a substitute for an official pre-flight weather briefing.

10:05:17 UTC

LRAR METAR
Arad International Airport
Arad, Romania
Current

35 mins ago

LRAR 180930Z 35008KT 320V020 CAVOK 12/05 Q1022
Observed
Feb-18 @ 09:30 UTC
Wind
  • 350° at 8 KTS
Visibility
10,000+ meters
Flight Rules
VFR
Cloud Levels
  • Clear skies
Temperature
12°C / 54°F
Dewpoint
C / 41°F
Humidity
63%
Altimeter
30.18" Hg
Pressure
1021.92 hPa
Previous

1 hour ago

LRAR 180900Z 32008KT CAVOK 10/06 Q1022
Observed
Feb-18 @ 09:00 UTC
Wind
  • 320° at 8 KTS
Visibility
10,000+ meters
Flight Rules
VFR
Cloud Levels
  • Clear skies
Temperature
10°C / 50°F
Dewpoint
C / 43°F
Humidity
76%
Altimeter
30.18" Hg
Pressure
1021.92 hPa
Previous

2 hours ago

LRAR 180830Z 31009KT CAVOK 09/06 Q1022
Observed
Feb-18 @ 08:30 UTC
Wind
  • 310° at 9 KTS
Visibility
10,000+ meters
Flight Rules
VFR
Cloud Levels
  • Clear skies
Temperature
C / 48°F
Dewpoint
C / 43°F
Humidity
82%
Altimeter
30.18" Hg
Pressure
1021.92 hPa